Time;durP1;ratioP1;P1;durP2;ratioP2;P2;SDS_P1;SDS_P2;PMS_P1;PMS_P2;Temp;Humidity;BMP_temperature;BMP_pressure;BME280_temperature;BME280_humidity;BME280_pressure;Samples;Min_cycle;Max_cycle;Signal;HPM_P1;HPM_P2
2022/11/08 00:02:02;;;;;;;;;;;;;;;;;;5030936;28;6946;-85
2022/11/08 00:04:27;;;;;;;;;;;;;;;;;;5016937;28;8581;-86
2022/11/08 00:15:06;;;;;;;;;;;;;;;;;;5034966;28;6958;-85
2022/11/08 00:17:31;;;;;;;;;;;;;;;;;;5017132;28;7028;-85
2022/11/08 00:19:57;;;;;;;;;;;;;;;;;;5016939;28;8391;-86
2022/11/08 00:22:24;;;;;;;;;;;;;;;;;;5017179;28;8488;-85
2022/11/08 00:24:53;;;;;;;;;;;;;;;;;;5017333;28;7510;-86
2022/11/08 00:27:20;;;;;;;;;;;;;;;;;;5016984;28;8812;-85
2022/11/08 00:29:45;;;;;;;;;;;;;;;;;;5017382;28;8489;-86
2022/11/08 00:32:13;;;;;;;;;;;;;;;;;;5017075;28;8422;-85
2022/11/08 00:34:38;;;;;;;;;;;;;;;;;;5017106;28;7249;-85
2022/11/08 00:37:04;;;;;;;;;;;;;;;;;;5017377;28;7037;-86
2022/11/08 00:39:30;;;;;;;;;;;;;;;;;;5017994;28;7125;-84
2022/11/08 00:41:55;;;;;;;;;;;;;;;;;;5020755;28;8403;-85
2022/11/08 00:44:21;;;;;;;;;;;;;;;;;;5021021;28;8555;-85
2022/11/08 00:46:47;;;;;;;;;;;;;;;;;;5020768;28;9421;-85
2022/11/08 00:49:12;;;;;;;;;;;;;;;;;;5020954;28;8423;-85
2022/11/08 00:51:38;;;;;;;;;;;;;;;;;;5020579;28;8406;-86
2022/11/08 00:54:04;;;;;;;;;;;;;;;;;;5020965;28;8488;-85
2022/11/08 00:56:30;;;;;;;;;;;;;;;;;;5020505;28;8430;-84
2022/11/08 00:58:57;;;;;;;;;;;;;;;;;;5020673;28;8384;-86
2022/11/08 01:01:23;;;;;;;;;;;;;;;;;;5020692;28;8566;-85
2022/11/08 01:03:49;;;;;;;;;;;;;;;;;;5020452;28;8392;-85
2022/11/08 01:06:17;;;;;;;;;;;;;;;;;;5020510;28;8519;-86
2022/11/08 01:08:43;;;;;;;;;;;;;;;;;;5020635;28;7168;-86
2022/11/08 01:11:11;;;;;;;;;;;;;;;;;;5020110;28;7291;-85
2022/11/08 01:13:37;;;;;;;;;;;;;;;;;;5021124;28;8407;-86
2022/11/08 01:16:07;;;;;;;;;;;;;;;;;;5020266;28;7503;-85
2022/11/08 01:18:33;;;;;;;;;;;;;;;;;;5020211;28;8449;-85
2022/11/08 01:20:59;;;;;;;;;;;;;;;;;;5020318;28;7067;-85
2022/11/08 01:23:24;;;;;;;;;;;;;;;;;;5021076;28;7213;-85
2022/11/08 01:25:49;;;;;;;;;;;;;;;;;;5020211;28;7140;-86
2022/11/08 01:28:15;;;;;;;;;;;;;;;;;;5000250;28;7126;-86
2022/11/08 01:30:43;;;;;;;;;;;;;;;;;;5000474;28;8520;-85
2022/11/08 01:33:09;;;;;;;;;;;;;;;;;;5000508;28;7097;-85
2022/11/08 01:35:36;;;;;;;;;;;;;;;;;;5000238;28;7447;-85
2022/11/08 01:38:02;;;;;;;;;;;;;;;;;;5000016;28;7442;-85
2022/11/08 01:40:29;;;;;;;;;;;;;;;;;;5000097;28;8414;-86
2022/11/08 01:42:56;;;;;;;;;;;;;;;;;;5000549;28;7147;-86
2022/11/08 01:45:40;;;;;;;;;;;;;;;;;;5000756;28;8357;-85
2022/11/08 01:48:05;;;;;;;;;;;;;;;;;;4999830;28;7159;-85
2022/11/08 01:50:31;;;;;;;;;;;;;;;;;;4999704;28;8355;-84
2022/11/08 01:52:56;;;;;;;;;;;;;;;;;;4999849;28;8487;-85
2022/11/08 01:55:26;;;;;;;;;;;;;;;;;;4999822;28;7031;-86
2022/11/08 01:58:02;;;;;;;;;;;;;;;;;;4999943;28;8578;-85
2022/11/08 02:00:28;;;;;;;;;;;;;;;;;;4999921;28;8686;-85
2022/11/08 02:02:57;;;;;;;;;;;;;;;;;;5015853;28;8665;-86
2022/11/08 02:05:26;;;;;;;;;;;;;;;;;;5015950;28;8441;-87
2022/11/08 02:07:51;;;;;;;;;;;;;;;;;;5015883;28;7231;-86
2022/11/08 02:10:18;;;;;;;;;;;;;;;;;;5015902;28;7392;-85
2022/11/08 02:12:44;;;;;;;;;;;;;;;;;;5015700;28;8322;-85
2022/11/08 02:15:11;;;;;;;;;;;;;;;;;;5015707;28;8622;-86
2022/11/08 02:17:37;;;;;;;;;;;;;;;;;;5016024;28;8490;-86
2022/11/08 02:20:02;;;;;;;;;;;;;;;;;;5015791;28;8422;-86
2022/11/08 02:22:33;;;;;;;;;;;;;;;;;;5015901;28;8427;-85
2022/11/08 02:24:59;;;;;;;;;;;;;;;;;;5015956;28;7032;-86
2022/11/08 02:27:25;;;;;;;;;;;;;;;;;;5015982;28;8276;-86
2022/11/08 02:29:55;;;;;;;;;;;;;;;;;;5016037;28;8410;-87
2022/11/08 02:32:21;;;;;;;;;;;;;;;;;;5015308;28;8485;-86
2022/11/08 02:34:57;;;;;;;;;;;;;;;;;;5015652;28;7129;-86
2022/11/08 02:37:24;;;;;;;;;;;;;;;;;;5015389;28;8423;-85
2022/11/08 02:39:50;;;;;;;;;;;;;;;;;;5015554;28;8330;-86
2022/11/08 02:42:17;;;;;;;;;;;;;;;;;;5015690;28;7116;-86
2022/11/08 02:44:43;;;;;;;;;;;;;;;;;;5015272;28;8451;-86
2022/11/08 02:47:09;;;;;;;;;;;;;;;;;;5015365;28;6900;-86
2022/11/08 02:49:34;;;;;;;;;;;;;;;;;;5015170;28;8394;-85
2022/11/08 02:52:00;;;;;;;;;;;;;;;;;;5015315;28;7223;-86
2022/11/08 02:54:25;;;;;;;;;;;;;;;;;;5015370;28;8685;-86
2022/11/08 02:56:50;;;;;;;;;;;;;;;;;;5015077;28;8464;-86
2022/11/08 02:59:16;;;;;;;;;;;;;;;;;;5015422;28;8413;-86
2022/11/08 03:01:41;;;;;;;;;;;;;;;;;;5014528;28;7125;-85
2022/11/08 03:04:07;;;;;;;;;;;;;;;;;;5014918;28;7363;-85
2022/11/08 03:06:33;;;;;;;;;;;;;;;;;;5014917;28;8367;-85
2022/11/08 03:08:58;;;;;;;;;;;;;;;;;;5015397;28;8385;-85
2022/11/08 03:11:24;;;;;;;;;;;;;;;;;;5014756;28;8547;-86
2022/11/08 03:13:49;;;;;;;;;;;;;;;;;;5014561;28;8649;-85
2022/11/08 03:16:15;;;;;;;;;;;;;;;;;;5014916;28;7216;-85
2022/11/08 03:18:40;;;;;;;;;;;;;;;;;;5014789;28;8772;-85
2022/11/08 03:21:06;;;;;;;;;;;;;;;;;;5014538;28;8388;-87
2022/11/08 03:23:32;;;;;;;;;;;;;;;;;;5015068;28;7159;-85
2022/11/08 03:26:01;;;;;;;;;;;;;;;;;;5014498;28;8315;-86
2022/11/08 03:28:27;;;;;;;;;;;;;;;;;;5014790;28;8307;-86
2022/11/08 03:30:53;;;;;;;;;;;;;;;;;;5014244;28;7209;-86
2022/11/08 03:33:19;;;;;;;;;;;;;;;;;;5014877;28;8863;-86
2022/11/08 03:35:45;;;;;;;;;;;;;;;;;;5014489;28;7082;-86
2022/11/08 03:38:11;;;;;;;;;;;;;;;;;;5014260;28;7153;-86
2022/11/08 03:40:37;;;;;;;;;;;;;;;;;;5014059;28;7452;-86
2022/11/08 03:43:02;;;;;;;;;;;;;;;;;;5014004;28;6998;-86
2022/11/08 03:45:28;;;;;;;;;;;;;;;;;;5014682;28;8370;-85
2022/11/08 03:47:53;;;;;;;;;;;;;;;;;;5014192;28;8609;-85
2022/11/08 03:50:19;;;;;;;;;;;;;;;;;;5014275;28;8483;-85
2022/11/08 03:52:46;;;;;;;;;;;;;;;;;;5014677;28;8441;-86
2022/11/08 03:55:12;;;;;;;;;;;;;;;;;;5014202;28;7301;-86
2022/11/08 03:57:38;;;;;;;;;;;;;;;;;;5013957;28;8293;-85
2022/11/08 04:00:05;;;;;;;;;;;;;;;;;;5013726;28;6976;-84
2022/11/08 04:02:30;;;;;;;;;;;;;;;;;;5017655;28;7043;-85
2022/11/08 04:04:56;;;;;;;;;;;;;;;;;;5017172;28;8854;-85
2022/11/08 04:07:21;;;;;;;;;;;;;;;;;;5017089;28;7305;-86
2022/11/08 04:09:46;;;;;;;;;;;;;;;;;;5017074;28;7010;-85
2022/11/08 04:15:14;;;;;;;;;;;;;;;;;;5035333;28;6974;-85
2022/11/08 04:23:13;;;;;;;;;;;;;;;;;;5034825;28;6803;-86
2022/11/08 04:25:38;;;;;;;;;;;;;;;;;;5017122;28;7035;-85
2022/11/08 04:28:04;;;;;;;;;;;;;;;;;;5016758;28;8669;-86
2022/11/08 04:30:30;;;;;;;;;;;;;;;;;;5016981;28;7084;-86
2022/11/08 04:32:55;;;;;;;;;;;;;;;;;;5016827;28;8691;-85
2022/11/08 04:35:21;;;;;;;;;;;;;;;;;;5016835;28;8851;-85
2022/11/08 04:37:46;;;;;;;;;;;;;;;;;;5017865;28;7143;-85
2022/11/08 04:40:12;;;;;;;;;;;;;;;;;;5016844;28;7090;-85
2022/11/08 04:42:37;;;;;;;;;;;;;;;;;;5016570;28;7245;-85
2022/11/08 04:45:03;;;;;;;;;;;;;;;;;;5017463;28;7363;-86
2022/11/08 04:47:28;;;;;;;;;;;;;;;;;;5016731;28;7245;-85
2022/11/08 04:49:53;;;;;;;;;;;;;;;;;;5017184;28;7010;-85
2022/11/08 04:52:19;;;;;;;;;;;;;;;;;;5016649;28;7133;-85
2022/11/08 04:54:45;;;;;;;;;;;;;;;;;;5016762;28;7026;-86
2022/11/08 04:57:11;;;;;;;;;;;;;;;;;;5016923;28;8913;-86
2022/11/08 04:59:38;;;;;;;;;;;;;;;;;;5016778;28;7151;-85
2022/11/08 05:02:03;;;;;;;;;;;;;;;;;;5016703;28;7164;-86
2022/11/08 05:04:29;;;;;;;;;;;;;;;;;;5017317;28;8352;-86
2022/11/08 05:06:54;;;;;;;;;;;;;;;;;;5017255;28;8662;-85
2022/11/08 05:09:20;;;;;;;;;;;;;;;;;;5017030;28;8363;-88
2022/11/08 05:11:45;;;;;;;;;;;;;;;;;;5016649;28;8656;-87
2022/11/08 05:14:11;;;;;;;;;;;;;;;;;;5002212;28;8410;-86
2022/11/08 05:16:36;;;;;;;;;;;;;;;;;;4996733;28;8638;-85
2022/11/08 05:19:01;;;;;;;;;;;;;;;;;;4997178;28;7805;-87
2022/11/08 05:24:13;;;;;;;;;;;;;;;;;;5014789;28;6976;-86
2022/11/08 05:26:43;;;;;;;;;;;;;;;;;;4999796;28;7170;-87
2022/11/08 05:29:09;;;;;;;;;;;;;;;;;;4990796;28;8737;-86
2022/11/08 05:31:35;;;;;;;;;;;;;;;;;;4996320;28;8489;-86
2022/11/08 05:34:00;;;;;;;;;;;;;;;;;;4984210;28;8599;-86
2022/11/08 05:36:27;;;;;;;;;;;;;;;;;;5000288;28;7037;-85
2022/11/08 05:38:53;;;;;;;;;;;;;;;;;;5000271;28;8482;-87
2022/11/08 05:41:20;;;;;;;;;;;;;;;;;;5000297;28;8508;-85
2022/11/08 05:43:47;;;;;;;;;;;;;;;;;;5000188;28;8930;-85
2022/11/08 05:46:12;;;;;;;;;;;;;;;;;;4984930;28;8677;-87
2022/11/08 05:48:38;;;;;;;;;;;;;;;;;;4987126;28;8649;-86
2022/11/08 05:51:04;;;;;;;;;;;;;;;;;;5000242;28;8695;-87
2022/11/08 05:53:30;;;;;;;;;;;;;;;;;;4999770;28;8515;-86
2022/11/08 05:56:02;;;;;;;;;;;;;;;;;;4986280;28;8654;-87
2022/11/08 05:58:30;;;;;;;;;;;;;;;;;;4999839;28;8685;-86
2022/11/08 06:01:06;;;;;;;;;;;;;;;;;;5009957;28;7076;-86
2022/11/08 06:03:33;;;;;;;;;;;;;;;;;;5029966;28;8413;-86
2022/11/08 06:06:03;;;;;;;;;;;;;;;;;;5015935;28;7172;-85
2022/11/08 06:08:28;;;;;;;;;;;;;;;;;;5024179;28;8373;-86
2022/11/08 06:10:54;;;;;;;;;;;;;;;;;;5021347;28;7062;-85
2022/11/08 06:13:19;;;;;;;;;;;;;;;;;;5021814;28;8683;-86
2022/11/08 06:15:45;;;;;;;;;;;;;;;;;;5018432;28;8375;-86
2022/11/08 06:18:10;;;;;;;;;;;;;;;;;;5027532;28;8823;-85
2022/11/08 06:20:35;;;;;;;;;;;;;;;;;;5026975;28;8687;-87
2022/11/08 06:23:01;;;;;;;;;;;;;;;;;;5031802;28;8435;-86
2022/11/08 06:25:26;;;;;;;;;;;;;;;;;;5035518;28;8678;-86
2022/11/08 06:27:51;;;;;;;;;;;;;;;;;;5035410;28;8381;-86
2022/11/08 06:30:17;;;;;;;;;;;;;;;;;;5035647;28;8380;-86
2022/11/08 06:32:42;;;;;;;;;;;;;;;;;;5034912;28;7207;-86
2022/11/08 06:35:08;;;;;;;;;;;;;;;;;;5015279;28;8568;-87
2022/11/08 06:37:34;;;;;;;;;;;;;;;;;;5021877;28;8579;-87
2022/11/08 06:39:59;;;;;;;;;;;;;;;;;;5035534;28;8443;-85
2022/11/08 06:42:25;;;;;;;;;;;;;;;;;;5035645;28;7239;-87
2022/11/08 06:44:51;;;;;;;;;;;;;;;;;;5025076;28;7386;-86
2022/11/08 06:47:17;;;;;;;;;;;;;;;;;;5023003;28;8641;-85
2022/11/08 06:49:42;;;;;;;;;;;;;;;;;;5029241;28;8629;-86
2022/11/08 06:52:07;;;;;;;;;;;;;;;;;;5034778;28;8587;-87
2022/11/08 06:54:33;;;;;;;;;;;;;;;;;;5035223;28;8546;-82
2022/11/08 06:56:59;;;;;;;;;;;;;;;;;;5034556;28;8320;-86
2022/11/08 06:59:27;;;;;;;;;;;;;;;;;;5034870;28;8441;-86
2022/11/08 07:01:53;;;;;;;;;;;;;;;;;;5034677;28;7048;-82
2022/11/08 07:04:19;;;;;;;;;;;;;;;;;;5034727;28;7127;-86
2022/11/08 07:06:44;;;;;;;;;;;;;;;;;;5034165;28;7020;-85
2022/11/08 07:09:09;;;;;;;;;;;;;;;;;;5013710;28;8534;-86
2022/11/08 07:11:35;;;;;;;;;;;;;;;;;;5014597;28;8401;-86
2022/11/08 07:14:01;;;;;;;;;;;;;;;;;;5014947;28;7091;-87
2022/11/08 07:16:26;;;;;;;;;;;;;;;;;;5015134;28;8513;-79
2022/11/08 07:18:52;;;;;;;;;;;;;;;;;;5014526;28;8570;-88
2022/11/08 07:21:17;;;;;;;;;;;;;;;;;;5014646;28;8375;-88
2022/11/08 07:23:43;;;;;;;;;;;;;;;;;;5014544;28;7014;-88
2022/11/08 07:26:10;;;;;;;;;;;;;;;;;;5014636;28;7029;-88
2022/11/08 07:28:35;;;;;;;;;;;;;;;;;;5015307;28;8352;-89
2022/11/08 07:31:04;;;;;;;;;;;;;;;;;;5014935;28;7076;-88
2022/11/08 07:33:29;;;;;;;;;;;;;;;;;;5014525;28;8290;-88
2022/11/08 07:35:55;;;;;;;;;;;;;;;;;;5014581;28;8398;-85
2022/11/08 07:38:22;;;;;;;;;;;;;;;;;;5014774;28;6970;-87
2022/11/08 07:40:47;;;;;;;;;;;;;;;;;;5014662;28;7262;-89
2022/11/08 07:43:13;;;;;;;;;;;;;;;;;;5014140;28;7319;-89
2022/11/08 07:45:40;;;;;;;;;;;;;;;;;;5015043;28;7381;-89
2022/11/08 07:48:07;;;;;;;;;;;;;;;;;;5013863;28;7415;-89
2022/11/08 07:50:32;;;;;;;;;;;;;;;;;;5014312;28;7112;-89
2022/11/08 07:52:58;;;;;;;;;;;;;;;;;;5014007;28;7338;-89
2022/11/08 07:55:24;;;;;;;;;;;;;;;;;;5014156;28;7054;-89
2022/11/08 07:57:51;;;;;;;;;;;;;;;;;;5013946;28;8494;-89
2022/11/08 08:00:17;;;;;;;;;;;;;;;;;;5013812;28;8660;-88
2022/11/08 08:02:42;;;;;;;;;;;;;;;;;;5014200;28;9263;-89
2022/11/08 08:05:07;;;;;;;;;;;;;;;;;;5013477;28;6992;-88
2022/11/08 08:07:34;;;;;;;;;;;;;;;;;;5013896;28;8399;-90
2022/11/08 08:10:00;;;;;;;;;;;;;;;;;;5014147;28;7242;-89
2022/11/08 08:12:25;;;;;;;;;;;;;;;;;;5014060;28;8496;-89
2022/11/08 08:14:51;;;;;;;;;;;;;;;;;;5013749;28;6902;-89
2022/11/08 08:17:16;;;;;;;;;;;;;;;;;;5013744;28;8244;-89
2022/11/08 08:19:42;;;;;;;;;;;;;;;;;;5013594;28;7215;-89
2022/11/08 08:22:07;;;;;;;;;;;;;;;;;;5013746;28;8275;-89
2022/11/08 08:24:32;;;;;;;;;;;;;;;;;;5014479;28;6981;-88
2022/11/08 08:26:58;;;;;;;;;;;;;;;;;;5013483;28;7018;-89
2022/11/08 08:29:23;;;;;;;;;;;;;;;;;;5013849;28;8422;-89
2022/11/08 08:31:55;;;;;;;;;;;;;;;;;;5013283;28;7002;-90
2022/11/08 08:34:20;;;;;;;;;;;;;;;;;;5029065;28;7830;-91
2022/11/08 08:36:46;;;;;;;;;;;;;;;;;;5033393;28;7144;-89
2022/11/08 08:39:11;;;;;;;;;;;;;;;;;;5033026;28;7067;-91
2022/11/08 08:41:37;;;;;;;;;;;;;;;;;;5033525;28;8431;-88
2022/11/08 08:44:03;;;;;;;;;;;;;;;;;;5033320;28;8655;-88
2022/11/08 08:46:28;;;;;;;;;;;;;;;;;;5036524;28;7234;-89
2022/11/08 08:48:54;;;;;;;;;;;;;;;;;;5032947;28;7041;-89
2022/11/08 08:51:19;;;;;;;;;;;;;;;;;;5032860;28;8681;-88
2022/11/08 08:53:45;;;;;;;;;;;;;;;;;;5033409;28;8348;-90
2022/11/08 08:56:11;;;;;;;;;;;;;;;;;;5033124;28;8289;-89
2022/11/08 08:58:36;;;;;;;;;;;;;;;;;;5033393;28;7012;-89
2022/11/08 09:01:03;;;;;;;;;;;;;;;;;;5035205;28;8649;-90
2022/11/08 09:03:29;;;;;;;;;;;;;;;;;;5037246;28;8402;-88
2022/11/08 09:05:59;;;;;;;;;;;;;;;;;;5037093;28;8311;-88
2022/11/08 09:08:25;;;;;;;;;;;;;;;;;;5036740;28;7030;-88
2022/11/08 09:10:54;;;;;;;;;;;;;;;;;;5022299;28;8303;-89
2022/11/08 09:13:20;;;;;;;;;;;;;;;;;;5016368;28;8508;-89
2022/11/08 09:15:45;;;;;;;;;;;;;;;;;;5016966;28;7206;-89
2022/11/08 09:18:11;;;;;;;;;;;;;;;;;;5017083;28;7108;-90
2022/11/08 09:20:37;;;;;;;;;;;;;;;;;;5016912;28;8750;-89
2022/11/08 09:23:02;;;;;;;;;;;;;;;;;;5017592;28;7035;-89
2022/11/08 09:25:28;;;;;;;;;;;;;;;;;;5017428;28;7156;-89
2022/11/08 09:27:54;;;;;;;;;;;;;;;;;;5016805;28;7419;-89
2022/11/08 09:30:19;;;;;;;;;;;;;;;;;;5016602;28;8601;-88
2022/11/08 09:32:44;;;;;;;;;;;;;;;;;;5016471;28;8405;-88
2022/11/08 09:35:10;;;;;;;;;;;;;;;;;;5016802;28;7005;-80
2022/11/08 09:37:35;;;;;;;;;;;;;;;;;;5016832;28;7211;-86
2022/11/08 09:40:01;;;;;;;;;;;;;;;;;;5016706;28;7140;-86
2022/11/08 09:42:50;;;;;;;;;;;;;;;;;;5016989;28;8308;-84
2022/11/08 09:45:36;;;;;;;;;;;;;;;;;;5016643;28;8874;-88
2022/11/08 09:48:05;;;;;;;;;;;;;;;;;;5033937;28;8410;-87
2022/11/08 09:50:31;;;;;;;;;;;;;;;;;;5017282;28;7167;-87
2022/11/08 09:53:02;;;;;;;;;;;;;;;;;;5032352;28;7048;-87
2022/11/08 09:55:36;;;;;;;;;;;;;;;;;;5016432;28;7046;-89
2022/11/08 09:58:26;;;;;;;;;;;;;;;;;;5016224;28;7031;-90
2022/11/08 10:00:52;;;;;;;;;;;;;;;;;;5016836;28;8729;-88
2022/11/08 10:03:22;;;;;;;;;;;;;;;;;;5016037;28;6897;-87
2022/11/08 10:06:02;;;;;;;;;;;;;;;;;;5015568;28;6959;-88
2022/11/08 10:08:32;;;;;;;;;;;;;;;;;;5016279;28;7053;-88
2022/11/08 10:11:11;;;;;;;;;;;;;;;;;;5015139;28;7227;-89
2022/11/08 10:13:52;;;;;;;;;;;;;;;;;;5015636;28;8712;-88
2022/11/08 10:16:33;;;;;;;;;;;;;;;;;;5015867;28;8558;-88
2022/11/08 10:19:02;;;;;;;;;;;;;;;;;;5032517;28;8426;-88
2022/11/08 10:21:38;;;;;;;;;;;;;;;;;;5032223;28;8493;-86
2022/11/08 10:24:22;;;;;;;;;;;;;;;;;;5015651;28;7036;-89
2022/11/08 10:26:52;;;;;;;;;;;;;;;;;;5015814;28;8856;-88
2022/11/08 10:29:22;;;;;;;;;;;;;;;;;;5015888;28;8770;-88
2022/11/08 10:31:52;;;;;;;;;;;;;;;;;;5015969;28;7069;-88
2022/11/08 10:34:25;;;;;;;;;;;;;;;;;;5015244;28;7056;-87
2022/11/08 10:36:57;;;;;;;;;;;;;;;;;;5016025;28;6985;-87
2022/11/08 10:39:27;;;;;;;;;;;;;;;;;;5016133;28;6856;-88
2022/11/08 10:41:59;;;;;;;;;;;;;;;;;;5015414;28;6983;-87
2022/11/08 10:44:29;;;;;;;;;;;;;;;;;;5032156;28;8436;-87
2022/11/08 10:46:55;;;;;;;;;;;;;;;;;;5015687;28;6837;-88
2022/11/08 10:49:26;;;;;;;;;;;;;;;;;;5015749;28;8386;-88
2022/11/08 10:51:54;;;;;;;;;;;;;;;;;;5035849;28;7255;-88
2022/11/08 10:54:38;;;;;;;;;;;;;;;;;;5018398;28;7331;-88
2022/11/08 10:57:04;;;;;;;;;;;;;;;;;;5019101;28;6886;-89
2022/11/08 10:59:31;;;;;;;;;;;;;;;;;;5017686;28;6861;-89
2022/11/08 11:01:57;;;;;;;;;;;;;;;;;;5017817;28;7231;-89
2022/11/08 11:04:31;;;;;;;;;;;;;;;;;;5015741;28;7090;-88
2022/11/08 11:07:25;;;;;;;;;;;;;;;;;;5015816;28;7023;-88
2022/11/08 11:09:51;;;;;;;;;;;;;;;;;;4962818;28;8519;-88
2022/11/08 11:12:23;;;;;;;;;;;;;;;;;;5015384;28;8319;-88
2022/11/08 11:15:00;;;;;;;;;;;;;;;;;;5014759;28;7016;-88
2022/11/08 11:17:33;;;;;;;;;;;;;;;;;;5015203;28;7035;-87
2022/11/08 11:20:00;;;;;;;;;;;;;;;;;;5017940;28;8370;-88
2022/11/08 11:22:31;;;;;;;;;;;;;;;;;;5014872;28;7073;-82
2022/11/08 11:25:04;;;;;;;;;;;;;;;;;;5015094;28;6915;-86
2022/11/08 11:27:36;;;;;;;;;;;;;;;;;;5015303;28;8427;-86
2022/11/08 11:30:21;;;;;;;;;;;;;;;;;;5013875;28;7041;-85
2022/11/08 11:32:57;;;;;;;;;;;;;;;;;;5030771;28;9191;-86
2022/11/08 11:35:28;;;;;;;;;;;;;;;;;;5014582;28;8374;-86
2022/11/08 11:37:57;;;;;;;;;;;;;;;;;;5015591;28;7037;-86
2022/11/08 11:40:32;;;;;;;;;;;;;;;;;;5014424;28;8353;-89
2022/11/08 11:43:10;;;;;;;;;;;;;;;;;;5014559;28;8425;-89
2022/11/08 11:45:47;;;;;;;;;;;;;;;;;;5027460;28;7310;-89
2022/11/08 11:48:20;;;;;;;;;;;;;;;;;;5015840;28;8354;-89
2022/11/08 11:50:47;;;;;;;;;;;;;;;;;;5027864;28;7068;-88
2022/11/08 11:53:24;;;;;;;;;;;;;;;;;;5030747;28;8464;-88
2022/11/08 11:56:02;;;;;;;;;;;;;;;;;;5008932;28;8458;-89
2022/11/08 11:58:46;;;;;;;;;;;;;;;;;;5030110;28;8559;-89
2022/11/08 12:01:32;;;;;;;;;;;;;;;;;;5013474;28;8512;-88
2022/11/08 12:04:00;;;;;;;;;;;;;;;;;;4996993;28;8722;-89
2022/11/08 12:06:58;;;;;;;;;;;;;;;;;;5035859;28;7278;-88
2022/11/08 12:09:26;;;;;;;;;;;;;;;;;;4985273;28;8893;-89
2022/11/08 12:12:05;;;;;;;;;;;;;;;;;;5011105;28;8428;-90
2022/11/08 12:14:40;;;;;;;;;;;;;;;;;;4994494;28;7092;-89
2022/11/08 12:17:09;;;;;;;;;;;;;;;;;;5010679;28;7442;-90
2022/11/08 12:19:41;;;;;;;;;;;;;;;;;;5027476;28;8494;-89
2022/11/08 12:22:18;;;;;;;;;;;;;;;;;;5030501;28;8737;-89
2022/11/08 12:24:57;;;;;;;;;;;;;;;;;;5027632;28;8660;-90
2022/11/08 12:27:43;;;;;;;;;;;;;;;;;;4995348;28;7064;-89
2022/11/08 12:30:10;;;;;;;;;;;;;;;;;;4983968;28;7103;-89
2022/11/08 12:32:48;;;;;;;;;;;;;;;;;;5041092;28;7226;-92
2022/11/08 12:35:25;;;;;;;;;;;;;;;;;;5017325;28;6851;-88
2022/11/08 12:38:27;;;;;;;;;;;;;;;;;;5022399;28;7144;-93
2022/11/08 12:41:17;;;;;;;;;;;;;;;;;;5011138;28;7173;-86
2022/11/08 12:44:02;;;;;;;;;;;;;;;;;;5016911;28;7090;-92
2022/11/08 12:46:55;;;;;;;;;;;;;;;;;;5014859;28;6829;-94
2022/11/08 12:49:46;;;;;;;;;;;;;;;;;;5020730;28;7272;-94
2022/11/08 12:52:33;;;;;;;;;;;;;;;;;;5016230;28;8373;-89
2022/11/08 12:55:02;;;;;;;;;;;;;;;;;;5019934;28;8421;-93
2022/11/08 12:57:27;;;;;;;;;;;;;;;;;;5017307;28;8796;-91
2022/11/08 13:00:05;;;;;;;;;;;;;;;;;;5017257;28;7249;-89
2022/11/08 13:02:34;;;;;;;;;;;;;;;;;;5033177;28;8766;-86
2022/11/08 13:05:10;;;;;;;;;;;;;;;;;;5037161;28;8481;-90
2022/11/08 13:07:48;;;;;;;;;;;;;;;;;;5037968;28;8589;-92
2022/11/08 13:13:01;;;;;;;;;;;;;;;;;;5045828;28;6787;-92
2022/11/08 13:15:27;;;;;;;;;;;;;;;;;;5057218;28;8287;-90
2022/11/08 13:18:08;;;;;;;;;;;;;;;;;;5043713;28;7031;-88
2022/11/08 13:20:47;;;;;;;;;;;;;;;;;;5057313;28;8761;-91
2022/11/08 13:23:23;;;;;;;;;;;;;;;;;;5038868;28;7183;-91
2022/11/08 13:25:50;;;;;;;;;;;;;;;;;;5039932;28;7112;-85
2022/11/08 13:28:34;;;;;;;;;;;;;;;;;;5027893;28;6855;-83
2022/11/08 13:31:08;;;;;;;;;;;;;;;;;;5017602;28;8482;-88
2022/11/08 13:33:35;;;;;;;;;;;;;;;;;;5000493;28;8404;-87
2022/11/08 13:36:20;;;;;;;;;;;;;;;;;;5017189;28;8435;-88
2022/11/08 13:38:55;;;;;;;;;;;;;;;;;;5016509;28;7446;-87
2022/11/08 13:41:23;;;;;;;;;;;;;;;;;;5016515;28;8433;-88
2022/11/08 13:43:49;;;;;;;;;;;;;;;;;;5017314;28;7055;-88
2022/11/08 13:46:30;;;;;;;;;;;;;;;;;;5014536;28;7088;-88
2022/11/08 13:49:03;;;;;;;;;;;;;;;;;;5016450;28;8473;-88
2022/11/08 13:51:32;;;;;;;;;;;;;;;;;;5015977;28;8852;-88
2022/11/08 13:54:02;;;;;;;;;;;;;;;;;;5016286;28;7192;-88
2022/11/08 13:56:45;;;;;;;;;;;;;;;;;;5017639;28;7131;-87
2022/11/08 13:59:29;;;;;;;;;;;;;;;;;;5018286;28;8706;-87
2022/11/08 14:01:55;;;;;;;;;;;;;;;;;;5017587;28;7230;-87
2022/11/08 14:04:29;;;;;;;;;;;;;;;;;;5015658;28;8452;-87
2022/11/08 14:07:03;;;;;;;;;;;;;;;;;;5014935;28;8594;-88
2022/11/08 14:09:42;;;;;;;;;;;;;;;;;;5014239;28;7090;-88
2022/11/08 14:12:10;;;;;;;;;;;;;;;;;;5014494;28;8858;-87
2022/11/08 14:14:40;;;;;;;;;;;;;;;;;;5015816;28;7196;-88
2022/11/08 14:17:24;;;;;;;;;;;;;;;;;;5016264;28;8477;-87
2022/11/08 14:19:51;;;;;;;;;;;;;;;;;;5016208;28;8441;-88
2022/11/08 14:22:22;;;;;;;;;;;;;;;;;;5015159;28;8579;-89
2022/11/08 14:24:51;;;;;;;;;;;;;;;;;;5016005;28;7079;-88
2022/11/08 14:27:31;;;;;;;;;;;;;;;;;;5016464;28;8439;-89
2022/11/08 14:30:01;;;;;;;;;;;;;;;;;;5032474;28;8431;-88
2022/11/08 14:32:28;;;;;;;;;;;;;;;;;;5015318;28;7251;-88
2022/11/08 14:35:09;;;;;;;;;;;;;;;;;;5015523;28;7339;-88
2022/11/08 14:37:36;;;;;;;;;;;;;;;;;;5015568;28;7370;-88
2022/11/08 14:40:02;;;;;;;;;;;;;;;;;;5015099;28;8412;-89
2022/11/08 14:42:27;;;;;;;;;;;;;;;;;;5031805;28;8540;-88
2022/11/08 14:44:55;;;;;;;;;;;;;;;;;;5015364;28;7419;-88
2022/11/08 14:47:27;;;;;;;;;;;;;;;;;;5014852;28;7258;-88
2022/11/08 14:49:53;;;;;;;;;;;;;;;;;;5014531;28;7221;-87
2022/11/08 14:52:21;;;;;;;;;;;;;;;;;;5015169;28;7271;-83
2022/11/08 14:54:48;;;;;;;;;;;;;;;;;;5031464;28;8635;-84
2022/11/08 14:57:30;;;;;;;;;;;;;;;;;;5014624;28;8604;-84
2022/11/08 14:59:56;;;;;;;;;;;;;;;;;;5030903;28;8445;-87
2022/11/08 15:02:23;;;;;;;;;;;;;;;;;;5014753;28;7056;-88
2022/11/08 15:04:49;;;;;;;;;;;;;;;;;;5015058;28;7020;-88
2022/11/08 15:07:18;;;;;;;;;;;;;;;;;;5030409;28;8483;-78
2022/11/08 15:09:44;;;;;;;;;;;;;;;;;;5015096;28;7135;-89
2022/11/08 15:12:16;;;;;;;;;;;;;;;;;;5014376;28;8762;-88
2022/11/08 15:14:50;;;;;;;;;;;;;;;;;;5014466;28;8362;-88
2022/11/08 15:17:35;;;;;;;;;;;;;;;;;;5014328;28;8889;-89
2022/11/08 15:20:03;;;;;;;;;;;;;;;;;;5030795;28;8479;-89
2022/11/08 15:22:30;;;;;;;;;;;;;;;;;;5014690;28;8702;-89
2022/11/08 15:24:59;;;;;;;;;;;;;;;;;;5015120;28;8337;-90
2022/11/08 15:27:26;;;;;;;;;;;;;;;;;;5015786;28;8590;-89
2022/11/08 15:29:51;;;;;;;;;;;;;;;;;;5013987;28;7185;-88
2022/11/08 15:32:18;;;;;;;;;;;;;;;;;;5014520;28;8498;-89
2022/11/08 15:34:44;;;;;;;;;;;;;;;;;;5014759;28;9253;-89
2022/11/08 15:37:26;;;;;;;;;;;;;;;;;;5014574;28;8432;-89
2022/11/08 15:39:53;;;;;;;;;;;;;;;;;;5014258;28;8878;-90
2022/11/08 15:42:19;;;;;;;;;;;;;;;;;;5014279;28;8767;-89
2022/11/08 15:45:06;;;;;;;;;;;;;;;;;;5013200;28;7259;-88
2022/11/08 15:47:41;;;;;;;;;;;;;;;;;;5013603;28;8422;-90
2022/11/08 15:50:30;;;;;;;;;;;;;;;;;;5015078;28;8437;-90
2022/11/08 15:52:57;;;;;;;;;;;;;;;;;;5031189;28;8351;-89
2022/11/08 15:55:26;;;;;;;;;;;;;;;;;;5013806;28;8695;-91
2022/11/08 15:57:53;;;;;;;;;;;;;;;;;;5013937;28;8766;-89
2022/11/08 16:00:24;;;;;;;;;;;;;;;;;;5014032;28;7153;-91
2022/11/08 16:02:50;;;;;;;;;;;;;;;;;;5014275;28;7441;-90
2022/11/08 16:05:18;;;;;;;;;;;;;;;;;;5014184;28;8486;-89
2022/11/08 16:07:44;;;;;;;;;;;;;;;;;;5013824;28;8440;-89
2022/11/08 16:10:11;;;;;;;;;;;;;;;;;;5014531;28;6972;-89
2022/11/08 16:12:38;;;;;;;;;;;;;;;;;;5014413;28;7268;-90
2022/11/08 16:15:04;;;;;;;;;;;;;;;;;;5013718;28;9138;-90
2022/11/08 16:17:30;;;;;;;;;;;;;;;;;;5009340;28;7256;-89
2022/11/08 16:19:55;;;;;;;;;;;;;;;;;;5018930;28;8407;-90
2022/11/08 16:22:20;;;;;;;;;;;;;;;;;;5010693;28;8430;-90
2022/11/08 16:24:46;;;;;;;;;;;;;;;;;;5023392;28;8425;-89
2022/11/08 16:27:11;;;;;;;;;;;;;;;;;;4994271;28;8298;-90
2022/11/08 16:29:37;;;;;;;;;;;;;;;;;;4994621;28;8975;-89
2022/11/08 16:32:02;;;;;;;;;;;;;;;;;;4994062;28;8666;-89
2022/11/08 16:34:28;;;;;;;;;;;;;;;;;;4993921;28;8509;-89
2022/11/08 16:36:53;;;;;;;;;;;;;;;;;;4994076;28;9393;-89
2022/11/08 16:39:21;;;;;;;;;;;;;;;;;;4995294;28;8539;-90
2022/11/08 16:41:47;;;;;;;;;;;;;;;;;;5013498;28;8722;-89
2022/11/08 16:44:12;;;;;;;;;;;;;;;;;;5013270;28;7158;-89
2022/11/08 16:46:39;;;;;;;;;;;;;;;;;;5013677;28;8342;-84
2022/11/08 16:49:06;;;;;;;;;;;;;;;;;;5013206;28;8920;-85
2022/11/08 16:51:31;;;;;;;;;;;;;;;;;;5013249;28;8451;-84
2022/11/08 16:53:57;;;;;;;;;;;;;;;;;;5013766;28;8402;-88
2022/11/08 16:56:22;;;;;;;;;;;;;;;;;;5013184;28;8558;-84
2022/11/08 16:58:48;;;;;;;;;;;;;;;;;;5005473;28;8467;-87
2022/11/08 17:01:23;;;;;;;;;;;;;;;;;;5004729;28;8441;-89
2022/11/08 17:03:51;;;;;;;;;;;;;;;;;;5028399;28;7267;-89
2022/11/08 17:06:17;;;;;;;;;;;;;;;;;;5016825;28;7256;-87
2022/11/08 17:08:48;;;;;;;;;;;;;;;;;;5015191;28;7392;-88
2022/11/08 17:11:16;;;;;;;;;;;;;;;;;;5015647;28;6827;-88
2022/11/08 17:13:42;;;;;;;;;;;;;;;;;;5014262;28;7063;-87
2022/11/08 17:16:11;;;;;;;;;;;;;;;;;;5013327;28;8435;-87
2022/11/08 17:18:37;;;;;;;;;;;;;;;;;;5009127;28;8348;-87
2022/11/08 17:21:11;;;;;;;;;;;;;;;;;;4992491;28;8391;-87
2022/11/08 17:23:36;;;;;;;;;;;;;;;;;;4997504;28;7038;-88
2022/11/08 17:26:06;;;;;;;;;;;;;;;;;;4997683;28;8427;-88
2022/11/08 17:28:31;;;;;;;;;;;;;;;;;;5009186;28;8456;-88
2022/11/08 17:31:07;;;;;;;;;;;;;;;;;;5016834;28;8449;-87
2022/11/08 17:33:35;;;;;;;;;;;;;;;;;;5016848;28;7206;-88
2022/11/08 17:36:05;;;;;;;;;;;;;;;;;;5013544;28;8320;-89
2022/11/08 17:38:32;;;;;;;;;;;;;;;;;;5016002;28;7047;-87